sensor_id;sensor_type;location;lat;lon;timestamp;temperature;humidity
17080;DHT22;8655;57.106;-2.088;2022-12-07T00:01:09;16.60;64.10
17080;DHT22;8655;57.106;-2.088;2022-12-07T00:03:37;16.60;64.10
17080;DHT22;8655;57.106;-2.088;2022-12-07T00:06:04;16.60;64.10
17080;DHT22;8655;57.106;-2.088;2022-12-07T00:08:31;16.50;64.00
17080;DHT22;8655;57.106;-2.088;2022-12-07T00:11:21;16.50;63.90
17080;DHT22;8655;57.106;-2.088;2022-12-07T00:13:51;16.50;63.90
17080;DHT22;8655;57.106;-2.088;2022-12-07T00:16:19;16.50;63.90
17080;DHT22;8655;57.106;-2.088;2022-12-07T00:18:45;16.50;63.90
17080;DHT22;8655;57.106;-2.088;2022-12-07T00:21:17;16.50;63.90
17080;DHT22;8655;57.106;-2.088;2022-12-07T00:23:46;16.50;63.80
17080;DHT22;8655;57.106;-2.088;2022-12-07T00:26:18;16.50;63.80
17080;DHT22;8655;57.106;-2.088;2022-12-07T00:28:46;16.40;63.70
17080;DHT22;8655;57.106;-2.088;2022-12-07T00:31:14;16.40;63.70
17080;DHT22;8655;57.106;-2.088;2022-12-07T00:33:40;16.40;63.70
17080;DHT22;8655;57.106;-2.088;2022-12-07T00:36:08;16.40;63.70
17080;DHT22;8655;57.106;-2.088;2022-12-07T00:38:35;16.40;63.70
17080;DHT22;8655;57.106;-2.088;2022-12-07T00:41:07;16.40;63.60
17080;DHT22;8655;57.106;-2.088;2022-12-07T00:43:33;16.40;63.60
17080;DHT22;8655;57.106;-2.088;2022-12-07T00:45:59;16.40;63.60
17080;DHT22;8655;57.106;-2.088;2022-12-07T00:48:25;16.40;63.60
17080;DHT22;8655;57.106;-2.088;2022-12-07T00:50:50;16.40;63.60
17080;DHT22;8655;57.106;-2.088;2022-12-07T00:53:16;16.30;63.50
17080;DHT22;8655;57.106;-2.088;2022-12-07T00:55:42;16.30;63.40
17080;DHT22;8655;57.106;-2.088;2022-12-07T00:58:08;16.30;63.40
17080;DHT22;8655;57.106;-2.088;2022-12-07T01:00:36;16.30;63.40
17080;DHT22;8655;57.106;-2.088;2022-12-07T01:03:02;16.30;63.30
17080;DHT22;8655;57.106;-2.088;2022-12-07T01:05:28;16.30;63.30
17080;DHT22;8655;57.106;-2.088;2022-12-07T01:07:54;16.30;63.30
17080;DHT22;8655;57.106;-2.088;2022-12-07T01:10:20;16.30;63.20
17080;DHT22;8655;57.106;-2.088;2022-12-07T01:12:45;16.30;63.20
17080;DHT22;8655;57.106;-2.088;2022-12-07T01:15:11;16.30;63.20
17080;DHT22;8655;57.106;-2.088;2022-12-07T01:17:37;16.30;63.20
17080;DHT22;8655;57.106;-2.088;2022-12-07T01:20:03;16.20;63.00
17080;DHT22;8655;57.106;-2.088;2022-12-07T01:22:29;16.20;63.00
17080;DHT22;8655;57.106;-2.088;2022-12-07T01:24:55;16.20;63.00
17080;DHT22;8655;57.106;-2.088;2022-12-07T01:27:20;16.20;63.00
17080;DHT22;8655;57.106;-2.088;2022-12-07T01:29:46;16.20;63.00
17080;DHT22;8655;57.106;-2.088;2022-12-07T01:32:12;16.20;63.00
17080;DHT22;8655;57.106;-2.088;2022-12-07T01:34:37;16.20;62.90
17080;DHT22;8655;57.106;-2.088;2022-12-07T01:37:04;16.10;62.80
17080;DHT22;8655;57.106;-2.088;2022-12-07T01:39:29;16.10;62.80
17080;DHT22;8655;57.106;-2.088;2022-12-07T01:41:55;16.20;62.80
17080;DHT22;8655;57.106;-2.088;2022-12-07T01:44:29;16.10;62.70
17080;DHT22;8655;57.106;-2.088;2022-12-07T01:46:59;16.10;62.70
17080;DHT22;8655;57.106;-2.088;2022-12-07T01:49:54;16.10;62.70
17080;DHT22;8655;57.106;-2.088;2022-12-07T01:52:29;16.10;62.70
17080;DHT22;8655;57.106;-2.088;2022-12-07T01:55:08;16.10;62.70
17080;DHT22;8655;57.106;-2.088;2022-12-07T01:57:38;16.10;62.60
17080;DHT22;8655;57.106;-2.088;2022-12-07T02:00:06;16.10;62.70
17080;DHT22;8655;57.106;-2.088;2022-12-07T02:02:35;16.10;62.70
17080;DHT22;8655;57.106;-2.088;2022-12-07T02:05:03;16.00;62.50
17080;DHT22;8655;57.106;-2.088;2022-12-07T02:07:31;16.10;62.60
17080;DHT22;8655;57.106;-2.088;2022-12-07T02:10:21;16.10;62.60
17080;DHT22;8655;57.106;-2.088;2022-12-07T02:12:51;16.00;62.40
17080;DHT22;8655;57.106;-2.088;2022-12-07T02:15:20;16.00;62.40
17080;DHT22;8655;57.106;-2.088;2022-12-07T02:18:05;16.00;62.40
17080;DHT22;8655;57.106;-2.088;2022-12-07T02:26:59;16.00;62.20
17080;DHT22;8655;57.106;-2.088;2022-12-07T02:29:18;16.00;62.20
17080;DHT22;8655;57.106;-2.088;2022-12-07T02:32:22;15.90;62.10
17080;DHT22;8655;57.106;-2.088;2022-12-07T02:35:46;16.00;62.20
17080;DHT22;8655;57.106;-2.088;2022-12-07T02:40:43;15.90;62.00
17080;DHT22;8655;57.106;-2.088;2022-12-07T02:45:48;15.90;62.00
17080;DHT22;8655;57.106;-2.088;2022-12-07T02:48:17;15.90;62.00
17080;DHT22;8655;57.106;-2.088;2022-12-07T02:50:54;15.90;62.00
17080;DHT22;8655;57.106;-2.088;2022-12-07T02:53:33;15.90;62.00
17080;DHT22;8655;57.106;-2.088;2022-12-07T02:57:14;15.90;61.90
17080;DHT22;8655;57.106;-2.088;2022-12-07T03:16:17;15.80;61.70
17080;DHT22;8655;57.106;-2.088;2022-12-07T03:18:57;15.80;61.70
17080;DHT22;8655;57.106;-2.088;2022-12-07T03:21:36;15.80;61.70
17080;DHT22;8655;57.106;-2.088;2022-12-07T03:24:08;15.80;61.70
17080;DHT22;8655;57.106;-2.088;2022-12-07T03:26:37;15.80;61.70
17080;DHT22;8655;57.106;-2.088;2022-12-07T03:29:33;15.80;61.70
17080;DHT22;8655;57.106;-2.088;2022-12-07T03:32:39;15.80;61.60
17080;DHT22;8655;57.106;-2.088;2022-12-07T03:35:05;15.70;61.50
17080;DHT22;8655;57.106;-2.088;2022-12-07T03:37:39;15.80;61.50
17080;DHT22;8655;57.106;-2.088;2022-12-07T03:42:40;15.70;61.30
17080;DHT22;8655;57.106;-2.088;2022-12-07T03:45:07;15.70;61.40
17080;DHT22;8655;57.106;-2.088;2022-12-07T03:47:55;15.70;61.40
17080;DHT22;8655;57.106;-2.088;2022-12-07T03:50:27;15.70;61.30
17080;DHT22;8655;57.106;-2.088;2022-12-07T03:52:58;15.70;61.30
17080;DHT22;8655;57.106;-2.088;2022-12-07T03:55:33;15.70;61.30
17080;DHT22;8655;57.106;-2.088;2022-12-07T03:58:03;15.70;61.20
17080;DHT22;8655;57.106;-2.088;2022-12-07T04:00:29;15.70;61.20
17080;DHT22;8655;57.106;-2.088;2022-12-07T04:02:55;15.70;61.20
17080;DHT22;8655;57.106;-2.088;2022-12-07T04:05:21;15.70;61.20
17080;DHT22;8655;57.106;-2.088;2022-12-07T04:07:47;15.70;61.20
17080;DHT22;8655;57.106;-2.088;2022-12-07T04:10:14;15.70;61.20
17080;DHT22;8655;57.106;-2.088;2022-12-07T04:12:39;15.70;61.10
17080;DHT22;8655;57.106;-2.088;2022-12-07T04:15:06;15.60;61.70
17080;DHT22;8655;57.106;-2.088;2022-12-07T04:17:31;15.60;61.00
17080;DHT22;8655;57.106;-2.088;2022-12-07T04:19:57;15.60;61.00
17080;DHT22;8655;57.106;-2.088;2022-12-07T04:22:23;15.60;61.00
17080;DHT22;8655;57.106;-2.088;2022-12-07T04:24:49;15.60;60.90
17080;DHT22;8655;57.106;-2.088;2022-12-07T04:27:14;15.60;61.00
17080;DHT22;8655;57.106;-2.088;2022-12-07T04:29:40;15.60;60.90
17080;DHT22;8655;57.106;-2.088;2022-12-07T04:32:06;15.60;60.90
17080;DHT22;8655;57.106;-2.088;2022-12-07T04:34:31;15.60;60.90
17080;DHT22;8655;57.106;-2.088;2022-12-07T04:36:57;15.60;60.90
17080;DHT22;8655;57.106;-2.088;2022-12-07T04:39:25;15.60;60.80
17080;DHT22;8655;57.106;-2.088;2022-12-07T04:41:51;15.60;60.80
17080;DHT22;8655;57.106;-2.088;2022-12-07T04:44:18;15.60;60.80
17080;DHT22;8655;57.106;-2.088;2022-12-07T04:46:45;15.50;60.70
17080;DHT22;8655;57.106;-2.088;2022-12-07T04:49:11;15.60;60.80
17080;DHT22;8655;57.106;-2.088;2022-12-07T04:51:37;15.50;60.60
17080;DHT22;8655;57.106;-2.088;2022-12-07T04:54:03;15.60;60.80
17080;DHT22;8655;57.106;-2.088;2022-12-07T04:56:29;15.50;60.60
17080;DHT22;8655;57.106;-2.088;2022-12-07T04:58:55;15.50;60.60
17080;DHT22;8655;57.106;-2.088;2022-12-07T05:01:22;15.50;60.60
17080;DHT22;8655;57.106;-2.088;2022-12-07T05:03:48;15.50;60.50
17080;DHT22;8655;57.106;-2.088;2022-12-07T05:06:14;15.50;60.60
17080;DHT22;8655;57.106;-2.088;2022-12-07T05:08:40;15.50;60.60
17080;DHT22;8655;57.106;-2.088;2022-12-07T05:11:07;15.50;60.50
17080;DHT22;8655;57.106;-2.088;2022-12-07T05:13:34;15.50;60.50
17080;DHT22;8655;57.106;-2.088;2022-12-07T05:16:00;15.50;60.50
17080;DHT22;8655;57.106;-2.088;2022-12-07T05:18:25;15.40;60.30
17080;DHT22;8655;57.106;-2.088;2022-12-07T05:20:51;15.50;60.40
17080;DHT22;8655;57.106;-2.088;2022-12-07T05:23:17;15.50;60.40
17080;DHT22;8655;57.106;-2.088;2022-12-07T05:25:43;15.40;60.30
17080;DHT22;8655;57.106;-2.088;2022-12-07T05:28:09;15.40;60.30
17080;DHT22;8655;57.106;-2.088;2022-12-07T05:30:35;15.40;60.20
17080;DHT22;8655;57.106;-2.088;2022-12-07T05:33:01;15.40;60.20
17080;DHT22;8655;57.106;-2.088;2022-12-07T05:35:28;15.40;60.20
17080;DHT22;8655;57.106;-2.088;2022-12-07T05:37:55;15.40;60.10
17080;DHT22;8655;57.106;-2.088;2022-12-07T05:40:20;15.40;60.10
17080;DHT22;8655;57.106;-2.088;2022-12-07T05:42:46;15.40;60.10
17080;DHT22;8655;57.106;-2.088;2022-12-07T05:45:12;15.40;60.10
17080;DHT22;8655;57.106;-2.088;2022-12-07T05:47:38;15.40;60.00
17080;DHT22;8655;57.106;-2.088;2022-12-07T05:50:05;15.30;60.00
17080;DHT22;8655;57.106;-2.088;2022-12-07T05:52:31;15.40;60.00
17080;DHT22;8655;57.106;-2.088;2022-12-07T05:54:56;15.40;60.00
17080;DHT22;8655;57.106;-2.088;2022-12-07T05:57:22;15.30;59.90
17080;DHT22;8655;57.106;-2.088;2022-12-07T05:59:48;15.40;60.00
17080;DHT22;8655;57.106;-2.088;2022-12-07T06:02:15;15.40;60.00
17080;DHT22;8655;57.106;-2.088;2022-12-07T06:04:43;15.30;59.90
17080;DHT22;8655;57.106;-2.088;2022-12-07T06:07:10;15.30;59.80
17080;DHT22;8655;57.106;-2.088;2022-12-07T06:09:36;15.30;59.80
17080;DHT22;8655;57.106;-2.088;2022-12-07T06:12:03;15.30;59.80
17080;DHT22;8655;57.106;-2.088;2022-12-07T06:14:47;15.30;59.80
17080;DHT22;8655;57.106;-2.088;2022-12-07T06:17:15;15.30;59.80
17080;DHT22;8655;57.106;-2.088;2022-12-07T06:19:41;15.30;59.80
17080;DHT22;8655;57.106;-2.088;2022-12-07T06:22:07;15.30;59.80
17080;DHT22;8655;57.106;-2.088;2022-12-07T06:24:34;15.30;59.80
17080;DHT22;8655;57.106;-2.088;2022-12-07T06:27:00;15.30;59.80
17080;DHT22;8655;57.106;-2.088;2022-12-07T06:29:26;15.30;59.80
17080;DHT22;8655;57.106;-2.088;2022-12-07T06:31:51;15.30;59.70
17080;DHT22;8655;57.106;-2.088;2022-12-07T06:34:19;15.30;59.70
17080;DHT22;8655;57.106;-2.088;2022-12-07T06:36:46;15.20;59.60
17080;DHT22;8655;57.106;-2.088;2022-12-07T06:39:16;15.20;59.60
17080;DHT22;8655;57.106;-2.088;2022-12-07T06:41:42;15.20;59.60
17080;DHT22;8655;57.106;-2.088;2022-12-07T06:44:08;15.20;59.60
17080;DHT22;8655;57.106;-2.088;2022-12-07T06:46:34;15.20;59.50
17080;DHT22;8655;57.106;-2.088;2022-12-07T06:49:01;15.20;59.50
17080;DHT22;8655;57.106;-2.088;2022-12-07T06:51:27;15.20;59.50
17080;DHT22;8655;57.106;-2.088;2022-12-07T06:53:53;15.20;59.50
17080;DHT22;8655;57.106;-2.088;2022-12-07T06:56:19;15.20;59.50
17080;DHT22;8655;57.106;-2.088;2022-12-07T06:58:44;15.20;59.50
17080;DHT22;8655;57.106;-2.088;2022-12-07T07:01:16;15.20;59.50
17080;DHT22;8655;57.106;-2.088;2022-12-07T07:03:43;15.20;59.60
17080;DHT22;8655;57.106;-2.088;2022-12-07T07:06:09;15.20;59.60
17080;DHT22;8655;57.106;-2.088;2022-12-07T07:08:36;15.20;59.60
17080;DHT22;8655;57.106;-2.088;2022-12-07T07:11:02;15.20;59.70
17080;DHT22;8655;57.106;-2.088;2022-12-07T07:13:28;15.30;59.80
17080;DHT22;8655;57.106;-2.088;2022-12-07T07:15:54;15.30;59.70
17080;DHT22;8655;57.106;-2.088;2022-12-07T07:18:21;15.30;59.70
17080;DHT22;8655;57.106;-2.088;2022-12-07T07:20:46;15.40;59.80
17080;DHT22;8655;57.106;-2.088;2022-12-07T07:23:12;15.40;59.80
17080;DHT22;8655;57.106;-2.088;2022-12-07T07:25:38;15.50;59.80
17080;DHT22;8655;57.106;-2.088;2022-12-07T07:28:04;15.50;59.80
17080;DHT22;8655;57.106;-2.088;2022-12-07T07:30:29;15.60;59.80
17080;DHT22;8655;57.106;-2.088;2022-12-07T07:33:02;15.60;59.80
17080;DHT22;8655;57.106;-2.088;2022-12-07T07:35:30;15.70;59.80
17080;DHT22;8655;57.106;-2.088;2022-12-07T07:37:56;15.70;59.90
17080;DHT22;8655;57.106;-2.088;2022-12-07T07:40:22;15.80;59.90
17080;DHT22;8655;57.106;-2.088;2022-12-07T07:42:52;15.80;59.90
17080;DHT22;8655;57.106;-2.088;2022-12-07T07:45:22;15.90;59.90
17080;DHT22;8655;57.106;-2.088;2022-12-07T07:47:48;15.90;60.00
17080;DHT22;8655;57.106;-2.088;2022-12-07T07:50:14;16.00;60.00
17080;DHT22;8655;57.106;-2.088;2022-12-07T07:52:41;16.00;60.60
17080;DHT22;8655;57.106;-2.088;2022-12-07T07:55:08;16.00;59.90
17080;DHT22;8655;57.106;-2.088;2022-12-07T07:57:38;16.10;60.00
17080;DHT22;8655;57.106;-2.088;2022-12-07T08:00:07;16.10;60.00
17080;DHT22;8655;57.106;-2.088;2022-12-07T08:02:33;16.20;60.00
17080;DHT22;8655;57.106;-2.088;2022-12-07T08:04:59;16.30;60.10
17080;DHT22;8655;57.106;-2.088;2022-12-07T08:07:25;16.30;60.00
17080;DHT22;8655;57.106;-2.088;2022-12-07T08:09:52;16.40;60.10
17080;DHT22;8655;57.106;-2.088;2022-12-07T08:12:17;16.40;60.10
17080;DHT22;8655;57.106;-2.088;2022-12-07T08:14:43;16.40;60.10
17080;DHT22;8655;57.106;-2.088;2022-12-07T08:17:09;16.50;60.20
17080;DHT22;8655;57.106;-2.088;2022-12-07T08:19:34;16.50;60.20
17080;DHT22;8655;57.106;-2.088;2022-12-07T08:22:00;16.60;60.20
17080;DHT22;8655;57.106;-2.088;2022-12-07T08:24:26;16.60;60.20
17080;DHT22;8655;57.106;-2.088;2022-12-07T08:26:52;16.60;60.20
17080;DHT22;8655;57.106;-2.088;2022-12-07T08:29:17;16.70;60.20
17080;DHT22;8655;57.106;-2.088;2022-12-07T08:31:43;16.70;60.20
17080;DHT22;8655;57.106;-2.088;2022-12-07T08:34:10;16.80;60.30
17080;DHT22;8655;57.106;-2.088;2022-12-07T08:36:36;16.80;60.30
17080;DHT22;8655;57.106;-2.088;2022-12-07T08:39:02;16.90;60.40
17080;DHT22;8655;57.106;-2.088;2022-12-07T08:41:28;16.90;60.30
17080;DHT22;8655;57.106;-2.088;2022-12-07T08:43:53;16.90;60.30
17080;DHT22;8655;57.106;-2.088;2022-12-07T08:46:39;17.00;60.40
17080;DHT22;8655;57.106;-2.088;2022-12-07T08:49:18;17.00;60.30
17080;DHT22;8655;57.106;-2.088;2022-12-07T08:51:44;17.10;60.40
17080;DHT22;8655;57.106;-2.088;2022-12-07T08:54:13;17.10;60.50
17080;DHT22;8655;57.106;-2.088;2022-12-07T08:56:40;17.10;60.40
17080;DHT22;8655;57.106;-2.088;2022-12-07T08:59:07;17.20;60.50
17080;DHT22;8655;57.106;-2.088;2022-12-07T09:01:33;17.20;60.50
17080;DHT22;8655;57.106;-2.088;2022-12-07T09:03:58;17.20;60.40
17080;DHT22;8655;57.106;-2.088;2022-12-07T09:06:24;17.30;60.50
17080;DHT22;8655;57.106;-2.088;2022-12-07T09:08:55;17.30;60.40
17080;DHT22;8655;57.106;-2.088;2022-12-07T09:11:22;17.30;60.40
17080;DHT22;8655;57.106;-2.088;2022-12-07T09:13:48;17.30;60.40
17080;DHT22;8655;57.106;-2.088;2022-12-07T09:16:14;17.30;60.40
17080;DHT22;8655;57.106;-2.088;2022-12-07T09:18:39;17.40;60.50
17080;DHT22;8655;57.106;-2.088;2022-12-07T09:21:05;17.40;60.40
17080;DHT22;8655;57.106;-2.088;2022-12-07T09:23:31;17.40;60.50
17080;DHT22;8655;57.106;-2.088;2022-12-07T09:26:01;17.40;60.40
17080;DHT22;8655;57.106;-2.088;2022-12-07T09:28:28;17.40;60.30
17080;DHT22;8655;57.106;-2.088;2022-12-07T09:30:53;17.40;60.30
17080;DHT22;8655;57.106;-2.088;2022-12-07T09:33:19;17.40;60.30
17080;DHT22;8655;57.106;-2.088;2022-12-07T09:35:46;17.40;60.30
17080;DHT22;8655;57.106;-2.088;2022-12-07T09:38:13;17.40;60.30
17080;DHT22;8655;57.106;-2.088;2022-12-07T09:40:39;17.30;60.10
17080;DHT22;8655;57.106;-2.088;2022-12-07T09:43:04;17.30;60.10
17080;DHT22;8655;57.106;-2.088;2022-12-07T09:45:34;17.30;60.10
17080;DHT22;8655;57.106;-2.088;2022-12-07T09:48:01;17.30;60.10
17080;DHT22;8655;57.106;-2.088;2022-12-07T09:50:28;17.30;60.10
17080;DHT22;8655;57.106;-2.088;2022-12-07T09:53:03;17.30;60.10
17080;DHT22;8655;57.106;-2.088;2022-12-07T09:55:31;17.30;60.10
17080;DHT22;8655;57.106;-2.088;2022-12-07T09:57:57;17.30;60.10
17080;DHT22;8655;57.106;-2.088;2022-12-07T10:00:24;17.20;60.00
17080;DHT22;8655;57.106;-2.088;2022-12-07T10:02:59;17.20;60.00
17080;DHT22;8655;57.106;-2.088;2022-12-07T10:05:34;17.20;59.90
17080;DHT22;8655;57.106;-2.088;2022-12-07T10:08:03;17.20;59.90
17080;DHT22;8655;57.106;-2.088;2022-12-07T10:10:34;17.20;60.00
17080;DHT22;8655;57.106;-2.088;2022-12-07T10:13:09;17.20;60.00
17080;DHT22;8655;57.106;-2.088;2022-12-07T10:15:52;17.10;59.90
17080;DHT22;8655;57.106;-2.088;2022-12-07T10:23:58;17.10;59.90
17080;DHT22;8655;57.106;-2.088;2022-12-07T10:26:33;17.10;60.00
17080;DHT22;8655;57.106;-2.088;2022-12-07T10:31:41;17.00;59.90
17080;DHT22;8655;57.106;-2.088;2022-12-07T10:34:21;17.00;59.90
17080;DHT22;8655;57.106;-2.088;2022-12-07T10:36:49;17.00;59.80
17080;DHT22;8655;57.106;-2.088;2022-12-07T10:39:19;17.00;59.80
17080;DHT22;8655;57.106;-2.088;2022-12-07T10:42:03;17.00;59.80
17080;DHT22;8655;57.106;-2.088;2022-12-07T10:44:30;16.90;59.60
17080;DHT22;8655;57.106;-2.088;2022-12-07T11:03:41;16.80;59.50
17080;DHT22;8655;57.106;-2.088;2022-12-07T11:06:39;16.80;59.50
17080;DHT22;8655;57.106;-2.088;2022-12-07T11:14:39;16.80;59.50
17080;DHT22;8655;57.106;-2.088;2022-12-07T11:17:35;16.70;59.40
17080;DHT22;8655;57.106;-2.088;2022-12-07T11:20:13;16.70;59.40
17080;DHT22;8655;57.106;-2.088;2022-12-07T11:25:37;16.70;59.40
17080;DHT22;8655;57.106;-2.088;2022-12-07T11:36:34;16.60;59.20
17080;DHT22;8655;57.106;-2.088;2022-12-07T11:41:41;16.60;59.20
17080;DHT22;8655;57.106;-2.088;2022-12-07T11:49:40;16.60;59.80
17080;DHT22;8655;57.106;-2.088;2022-12-07T11:52:22;16.50;59.00
17080;DHT22;8655;57.106;-2.088;2022-12-07T11:54:52;16.50;59.00
17080;DHT22;8655;57.106;-2.088;2022-12-07T11:57:32;16.50;59.00
17080;DHT22;8655;57.106;-2.088;2022-12-07T12:00:02;16.50;59.00
17080;DHT22;8655;57.106;-2.088;2022-12-07T12:02:36;16.50;59.00
17080;DHT22;8655;57.106;-2.088;2022-12-07T12:05:30;16.50;59.00
17080;DHT22;8655;57.106;-2.088;2022-12-07T12:10:45;16.50;58.90
17080;DHT22;8655;57.106;-2.088;2022-12-07T12:17:18;16.50;58.90
17080;DHT22;8655;57.106;-2.088;2022-12-07T12:19:34;16.40;58.80
17080;DHT22;8655;57.106;-2.088;2022-12-07T12:22:20;16.40;58.80
17080;DHT22;8655;57.106;-2.088;2022-12-07T12:24:51;16.40;58.80
17080;DHT22;8655;57.106;-2.088;2022-12-07T12:27:30;16.40;58.80
17080;DHT22;8655;57.106;-2.088;2022-12-07T12:30:03;16.40;58.80
17080;DHT22;8655;57.106;-2.088;2022-12-07T12:32:39;16.40;58.80
17080;DHT22;8655;57.106;-2.088;2022-12-07T12:35:26;16.40;58.80
17080;DHT22;8655;57.106;-2.088;2022-12-07T12:37:54;16.40;58.70
17080;DHT22;8655;57.106;-2.088;2022-12-07T12:42:50;16.40;58.70
17080;DHT22;8655;57.106;-2.088;2022-12-07T12:45:27;16.40;58.70
17080;DHT22;8655;57.106;-2.088;2022-12-07T12:48:00;16.30;58.60
17080;DHT22;8655;57.106;-2.088;2022-12-07T12:50:35;16.30;58.60
17080;DHT22;8655;57.106;-2.088;2022-12-07T12:53:43;16.40;58.70
17080;DHT22;8655;57.106;-2.088;2022-12-07T13:00:47;16.30;58.50
17080;DHT22;8655;57.106;-2.088;2022-12-07T13:03:26;16.30;58.50
17080;DHT22;8655;57.106;-2.088;2022-12-07T13:06:19;16.30;58.50
17080;DHT22;8655;57.106;-2.088;2022-12-07T13:08:45;16.30;58.40
17080;DHT22;8655;57.106;-2.088;2022-12-07T13:11:41;16.30;58.50
17080;DHT22;8655;57.106;-2.088;2022-12-07T13:14:51;16.30;58.40
17080;DHT22;8655;57.106;-2.088;2022-12-07T13:20:02;16.30;58.40
17080;DHT22;8655;57.106;-2.088;2022-12-07T13:24:58;16.20;58.30
17080;DHT22;8655;57.106;-2.088;2022-12-07T13:27:26;16.20;58.90
17080;DHT22;8655;57.106;-2.088;2022-12-07T13:29:54;16.20;58.30
17080;DHT22;8655;57.106;-2.088;2022-12-07T13:32:27;16.20;58.30
17080;DHT22;8655;57.106;-2.088;2022-12-07T13:34:53;16.20;58.20
17080;DHT22;8655;57.106;-2.088;2022-12-07T13:39:58;16.20;58.20
17080;DHT22;8655;57.106;-2.088;2022-12-07T13:42:26;16.20;58.20
17080;DHT22;8655;57.106;-2.088;2022-12-07T13:44:53;16.20;58.20
17080;DHT22;8655;57.106;-2.088;2022-12-07T13:49:58;16.20;58.10
17080;DHT22;8655;57.106;-2.088;2022-12-07T13:52:31;16.10;58.10
17080;DHT22;8655;57.106;-2.088;2022-12-07T13:57:27;16.20;58.10
17080;DHT22;8655;57.106;-2.088;2022-12-07T13:59:53;16.10;58.00
17080;DHT22;8655;57.106;-2.088;2022-12-07T14:02:26;16.10;58.00
17080;DHT22;8655;57.106;-2.088;2022-12-07T14:05:14;16.10;58.00
17080;DHT22;8655;57.106;-2.088;2022-12-07T14:10:54;16.10;58.00
17080;DHT22;8655;57.106;-2.088;2022-12-07T14:13:33;16.10;58.00
17080;DHT22;8655;57.106;-2.088;2022-12-07T14:16:00;16.10;58.00
17080;DHT22;8655;57.106;-2.088;2022-12-07T14:18:39;16.10;58.00
17080;DHT22;8655;57.106;-2.088;2022-12-07T14:21:14;16.00;57.90
17080;DHT22;8655;57.106;-2.088;2022-12-07T14:23:41;16.10;58.00
17080;DHT22;8655;57.106;-2.088;2022-12-07T14:26:07;16.00;57.90
17080;DHT22;8655;57.106;-2.088;2022-12-07T14:28:37;16.10;58.00
17080;DHT22;8655;57.106;-2.088;2022-12-07T14:31:03;16.00;57.90
17080;DHT22;8655;57.106;-2.088;2022-12-07T14:33:33;16.00;57.80
17080;DHT22;8655;57.106;-2.088;2022-12-07T14:35:59;16.00;57.80
17080;DHT22;8655;57.106;-2.088;2022-12-07T14:38:25;16.00;57.80
17080;DHT22;8655;57.106;-2.088;2022-12-07T14:40:55;16.00;57.80
17080;DHT22;8655;57.106;-2.088;2022-12-07T14:43:40;16.00;57.80
17080;DHT22;8655;57.106;-2.088;2022-12-07T14:46:06;16.00;57.80
17080;DHT22;8655;57.106;-2.088;2022-12-07T14:48:32;16.00;57.80
17080;DHT22;8655;57.106;-2.088;2022-12-07T14:50:58;16.00;57.80
17080;DHT22;8655;57.106;-2.088;2022-12-07T14:53:29;16.00;57.70
17080;DHT22;8655;57.106;-2.088;2022-12-07T14:55:55;16.00;57.70
17080;DHT22;8655;57.106;-2.088;2022-12-07T14:58:21;16.00;57.70
17080;DHT22;8655;57.106;-2.088;2022-12-07T15:00:46;16.00;57.70
17080;DHT22;8655;57.106;-2.088;2022-12-07T15:03:13;16.00;57.70
17080;DHT22;8655;57.106;-2.088;2022-12-07T15:05:39;15.90;57.60
17080;DHT22;8655;57.106;-2.088;2022-12-07T15:08:05;15.90;57.60
17080;DHT22;8655;57.106;-2.088;2022-12-07T15:10:33;15.90;57.60
17080;DHT22;8655;57.106;-2.088;2022-12-07T15:13:00;15.90;57.60
17080;DHT22;8655;57.106;-2.088;2022-12-07T15:15:47;15.90;57.50
17080;DHT22;8655;57.106;-2.088;2022-12-07T15:18:13;15.90;57.50
17080;DHT22;8655;57.106;-2.088;2022-12-07T15:20:39;15.90;57.50
17080;DHT22;8655;57.106;-2.088;2022-12-07T15:23:04;15.90;57.50
17080;DHT22;8655;57.106;-2.088;2022-12-07T15:25:30;15.90;57.50
17080;DHT22;8655;57.106;-2.088;2022-12-07T15:27:56;15.90;57.50
17080;DHT22;8655;57.106;-2.088;2022-12-07T15:30:21;15.90;57.50
17080;DHT22;8655;57.106;-2.088;2022-12-07T15:32:51;15.80;57.50
17080;DHT22;8655;57.106;-2.088;2022-12-07T15:35:17;15.80;57.40
17080;DHT22;8655;57.106;-2.088;2022-12-07T15:37:43;15.80;57.40
17080;DHT22;8655;57.106;-2.088;2022-12-07T15:40:09;15.80;57.40
17080;DHT22;8655;57.106;-2.088;2022-12-07T15:42:36;15.80;57.40
17080;DHT22;8655;57.106;-2.088;2022-12-07T15:45:02;15.80;57.40
17080;DHT22;8655;57.106;-2.088;2022-12-07T15:47:36;15.80;57.40
17080;DHT22;8655;57.106;-2.088;2022-12-07T15:50:11;15.80;57.30
17080;DHT22;8655;57.106;-2.088;2022-12-07T15:52:37;15.80;57.30
17080;DHT22;8655;57.106;-2.088;2022-12-07T15:55:03;15.80;57.30
17080;DHT22;8655;57.106;-2.088;2022-12-07T15:57:33;15.80;57.30
17080;DHT22;8655;57.106;-2.088;2022-12-07T16:00:00;15.70;57.20
17080;DHT22;8655;57.106;-2.088;2022-12-07T16:02:26;15.80;57.30
17080;DHT22;8655;57.106;-2.088;2022-12-07T16:04:52;15.70;57.20
17080;DHT22;8655;57.106;-2.088;2022-12-07T16:07:19;15.80;57.20
17080;DHT22;8655;57.106;-2.088;2022-12-07T16:09:45;15.70;57.20
17080;DHT22;8655;57.106;-2.088;2022-12-07T16:12:13;15.70;57.10
17080;DHT22;8655;57.106;-2.088;2022-12-07T16:14:39;15.70;57.20
17080;DHT22;8655;57.106;-2.088;2022-12-07T16:17:07;15.70;57.10
17080;DHT22;8655;57.106;-2.088;2022-12-07T16:19:33;15.70;57.10
17080;DHT22;8655;57.106;-2.088;2022-12-07T16:21:59;15.70;57.10
17080;DHT22;8655;57.106;-2.088;2022-12-07T16:24:25;15.70;57.10
17080;DHT22;8655;57.106;-2.088;2022-12-07T16:26:51;15.70;57.10
17080;DHT22;8655;57.106;-2.088;2022-12-07T16:29:19;15.70;57.10
17080;DHT22;8655;57.106;-2.088;2022-12-07T16:31:46;15.70;57.10
17080;DHT22;8655;57.106;-2.088;2022-12-07T16:34:12;15.60;57.00
17080;DHT22;8655;57.106;-2.088;2022-12-07T16:36:38;15.60;57.00
17080;DHT22;8655;57.106;-2.088;2022-12-07T16:39:04;15.70;57.00
17080;DHT22;8655;57.106;-2.088;2022-12-07T16:41:30;15.70;57.00
17080;DHT22;8655;57.106;-2.088;2022-12-07T16:43:56;15.60;56.90
17080;DHT22;8655;57.106;-2.088;2022-12-07T16:46:22;15.60;56.90
17080;DHT22;8655;57.106;-2.088;2022-12-07T16:48:47;15.60;56.90
17080;DHT22;8655;57.106;-2.088;2022-12-07T16:51:14;15.60;56.90
17080;DHT22;8655;57.106;-2.088;2022-12-07T16:53:41;15.60;56.90
17080;DHT22;8655;57.106;-2.088;2022-12-07T16:56:15;15.60;56.90
17080;DHT22;8655;57.106;-2.088;2022-12-07T16:58:44;15.60;56.90
17080;DHT22;8655;57.106;-2.088;2022-12-07T17:01:13;15.60;56.90
17080;DHT22;8655;57.106;-2.088;2022-12-07T17:03:39;15.60;56.90
17080;DHT22;8655;57.106;-2.088;2022-12-07T17:06:15;15.50;56.80
17080;DHT22;8655;57.106;-2.088;2022-12-07T17:08:42;15.60;56.90
17080;DHT22;8655;57.106;-2.088;2022-12-07T17:11:16;15.50;56.70
17080;DHT22;8655;57.106;-2.088;2022-12-07T17:13:43;15.50;56.80
17080;DHT22;8655;57.106;-2.088;2022-12-07T17:16:28;15.50;56.80
17080;DHT22;8655;57.106;-2.088;2022-12-07T17:18:54;15.50;56.70
17080;DHT22;8655;57.106;-2.088;2022-12-07T17:21:20;15.50;56.70
17080;DHT22;8655;57.106;-2.088;2022-12-07T17:23:47;15.50;56.70
17080;DHT22;8655;57.106;-2.088;2022-12-07T17:26:24;15.50;56.70
17080;DHT22;8655;57.106;-2.088;2022-12-07T17:28:50;15.50;56.70
17080;DHT22;8655;57.106;-2.088;2022-12-07T17:31:17;15.50;56.70
17080;DHT22;8655;57.106;-2.088;2022-12-07T17:33:44;15.50;56.60
17080;DHT22;8655;57.106;-2.088;2022-12-07T17:36:15;15.50;56.60